AAL2472 KDCA-KPBI
Flight info
| Callsign | AAL2472 |
|---|---|
| Flight time | 1h 59m |
| Altitude | 38000 |
| Route | AMEEE1 SCOOB EARZZ Q131 WAALT Y289 DULEE CLMNT2 |
| Aircraft | A319/M-SDE3FGHIRWY/LB1 |
Departure
| Time | 2026-04-19 04:27 |
|---|---|
| Airport | Ronald Reagan Washington National Airport (KDCA) |
Arrival
| Time | 2026-04-19 06:27 |
|---|---|
| Airport | Palm Beach International Airport (KPBI) |
| Time | Latitude | Longitude | Altitude | Speed | Heading |
|---|---|---|---|---|---|
| 2026-04-19 04:06 | 38.85441 | -77.04236 | 15 ft | 0 kts | 162° |
| 2026-04-19 04:16 | 38.85452 | -77.04241 | 24 ft | 4 kts | 162° |
| 2026-04-19 04:16 | 38.85474 | -77.04250 | 26 ft | 3 kts | 161° |
| 2026-04-19 04:16 | 38.85490 | -77.04264 | 26 ft | 4 kts | 94° |
| 2026-04-19 04:17 | 38.85490 | -77.04281 | 27 ft | 3 kts | 72° |
| 2026-04-19 04:17 | 38.85498 | -77.04248 | 25 ft | 4 kts | 72° |
| 2026-04-19 04:17 | 38.85506 | -77.04215 | 24 ft | 4 kts | 72° |
| 2026-04-19 04:17 | 38.85514 | -77.04182 | 26 ft | 4 kts | 72° |
| 2026-04-19 04:18 | 38.85516 | -77.04173 | 24 ft | 0 kts | 72° |
| 2026-04-19 04:22 | 38.85518 | -77.04167 | 24 ft | 1 kts | 72° |
| 2026-04-19 04:22 | 38.85522 | -77.04149 | 24 ft | 3 kts | 72° |
| 2026-04-19 04:22 | 38.85530 | -77.04120 | 25 ft | 4 kts | 72° |
| 2026-04-19 04:22 | 38.85540 | -77.04079 | 24 ft | 5 kts | 72° |
| 2026-04-19 04:23 | 38.85552 | -77.04027 | 24 ft | 7 kts | 73° |
| 2026-04-19 04:23 | 38.85571 | -77.03970 | 27 ft | 7 kts | 37° |
| 2026-04-19 04:23 | 38.85622 | -77.03963 | 25 ft | 8 kts | 355° |
| 2026-04-19 04:23 | 38.85698 | -77.03970 | 27 ft | 14 kts | 355° |
| 2026-04-19 04:24 | 38.85801 | -77.03980 | 27 ft | 15 kts | 356° |
| 2026-04-19 04:24 | 38.85911 | -77.03990 | 25 ft | 16 kts | 0° |
| 2026-04-19 04:24 | 38.85989 | -77.03960 | 24 ft | 6 kts | 17° |
| 2026-04-19 04:24 | 38.85996 | -77.03958 | 24 ft | 0 kts | 17° |
| 2026-04-19 04:25 | 38.85997 | -77.03958 | 24 ft | 0 kts | 17° |
| 2026-04-19 04:25 | 38.86003 | -77.03955 | 24 ft | 3 kts | 17° |
| 2026-04-19 04:25 | 38.86046 | -77.03939 | 24 ft | 10 kts | 16° |
| 2026-04-19 04:26 | 38.86105 | -77.03880 | 23 ft | 8 kts | 91° |
| 2026-04-19 04:26 | 38.86063 | -77.03867 | 23 ft | 0 kts | 178° |
| 2026-04-19 04:26 | 38.86061 | -77.03866 | 23 ft | 7 kts | 178° |
| 2026-04-19 04:26 | 38.85726 | -77.03834 | 24 ft | 88 kts | 175° |
| 2026-04-19 04:27 | 38.84885 | -77.03749 | 25 ft | 152 kts | 175° |
| 2026-04-19 04:27 | 38.83754 | -77.03630 | 542 ft | 157 kts | 175° |
| 2026-04-19 04:27 | 38.82694 | -77.03461 | 1348 ft | 151 kts | 172° |
| 2026-04-19 04:27 | 38.81625 | -77.03222 | 1819 ft | 164 kts | 172° |
| 2026-04-19 04:28 | 38.80445 | -77.02923 | 2059 ft | 183 kts | 174° |
| 2026-04-19 04:28 | 38.79091 | -77.02607 | 2176 ft | 209 kts | 174° |
| 2026-04-19 04:28 | 38.77662 | -77.02300 | 2850 ft | 210 kts | 175° |
| 2026-04-19 04:28 | 38.76183 | -77.01990 | 3350 ft | 220 kts | 176° |
| 2026-04-19 04:29 | 38.74686 | -77.01384 | 3845 ft | 238 kts | 159° |
| 2026-04-19 04:29 | 38.73221 | -77.00169 | 4127 ft | 258 kts | 153° |
| 2026-04-19 04:29 | 38.71739 | -76.98840 | 4750 ft | 261 kts | 152° |
| 2026-04-19 04:29 | 38.70247 | -76.97484 | 5337 ft | 265 kts | 152° |
| 2026-04-19 04:30 | 38.68723 | -76.96106 | 5873 ft | 272 kts | 152° |
| 2026-04-19 04:30 | 38.67158 | -76.94705 | 6399 ft | 277 kts | 152° |
| 2026-04-19 04:30 | 38.65561 | -76.93286 | 6952 ft | 281 kts | 152° |
| 2026-04-19 04:30 | 38.63942 | -76.91854 | 7521 ft | 285 kts | 152° |
| 2026-04-19 04:31 | 38.62302 | -76.90406 | 8089 ft | 288 kts | 151° |
| 2026-04-19 04:31 | 38.60641 | -76.88939 | 8622 ft | 292 kts | 151° |
| 2026-04-19 04:31 | 38.58952 | -76.87451 | 9146 ft | 297 kts | 150° |
| 2026-04-19 04:31 | 38.57243 | -76.85946 | 9667 ft | 301 kts | 150° |
| 2026-04-19 04:32 | 38.55500 | -76.84412 | 10066 ft | 309 kts | 150° |
| 2026-04-19 04:32 | 38.53674 | -76.82805 | 10177 ft | 327 kts | 150° |
| 2026-04-19 04:32 | 38.51767 | -76.81110 | 10328 ft | 340 kts | 150° |
| 2026-04-19 04:32 | 38.49823 | -76.79366 | 10659 ft | 344 kts | 149° |
| 2026-04-19 04:33 | 38.47860 | -76.77600 | 11045 ft | 346 kts | 149° |
| 2026-04-19 04:33 | 38.45889 | -76.75827 | 11430 ft | 347 kts | 150° |
| 2026-04-19 04:33 | 38.43906 | -76.74048 | 11827 ft | 349 kts | 150° |
| 2026-04-19 04:33 | 38.41846 | -76.72437 | 12199 ft | 345 kts | 159° |
| 2026-04-19 04:34 | 38.39621 | -76.71356 | 12567 ft | 340 kts | 170° |
| 2026-04-19 04:34 | 38.37312 | -76.70817 | 12933 ft | 336 kts | 179° |
| 2026-04-19 04:34 | 38.34982 | -76.70452 | 13270 ft | 338 kts | 178° |
| 2026-04-19 04:34 | 38.32641 | -76.70079 | 13598 ft | 340 kts | 178° |
| 2026-04-19 04:35 | 38.30289 | -76.69699 | 13909 ft | 341 kts | 178° |
| 2026-04-19 04:35 | 38.27927 | -76.69313 | 14197 ft | 343 kts | 178° |
| 2026-04-19 04:35 | 38.25558 | -76.68924 | 14470 ft | 344 kts | 178° |
| 2026-04-19 04:35 | 38.23179 | -76.68534 | 14729 ft | 345 kts | 178° |
| 2026-04-19 04:36 | 38.20792 | -76.68146 | 14991 ft | 347 kts | 178° |
| 2026-04-19 04:36 | 38.18393 | -76.67760 | 15243 ft | 348 kts | 178° |
| 2026-04-19 04:36 | 38.15987 | -76.67378 | 15483 ft | 349 kts | 178° |
| 2026-04-19 04:36 | 38.13573 | -76.66995 | 15735 ft | 350 kts | 178° |
| 2026-04-19 04:37 | 38.11148 | -76.66606 | 15952 ft | 352 kts | 177° |
| 2026-04-19 04:37 | 38.08711 | -76.66255 | 16174 ft | 353 kts | 179° |
| 2026-04-19 04:37 | 38.06259 | -76.66028 | 16406 ft | 353 kts | 181° |
| 2026-04-19 04:37 | 38.03803 | -76.65876 | 16630 ft | 354 kts | 182° |
| 2026-04-19 04:38 | 38.01339 | -76.65755 | 16853 ft | 355 kts | 182° |
| 2026-04-19 04:38 | 37.98869 | -76.65634 | 17079 ft | 356 kts | 182° |
| 2026-04-19 04:38 | 37.96387 | -76.65498 | 17291 ft | 358 kts | 182° |
| 2026-04-19 04:38 | 37.93934 | -76.65348 | 17500 ft | 359 kts | 181° |
| 2026-04-19 04:39 | 37.91438 | -76.65184 | 17704 ft | 360 kts | 181° |
| 2026-04-19 04:39 | 37.88933 | -76.65014 | 17900 ft | 361 kts | 181° |
| 2026-04-19 04:39 | 37.86417 | -76.64841 | 18093 ft | 363 kts | 181° |
| 2026-04-19 04:39 | 37.83896 | -76.64670 | 18267 ft | 364 kts | 181° |
| 2026-04-19 04:40 | 37.81364 | -76.64501 | 18434 ft | 365 kts | 181° |
| 2026-04-19 04:40 | 37.78855 | -76.64329 | 18973 ft | 351 kts | 181° |
| 2026-04-19 04:40 | 37.76474 | -76.64161 | 19665 ft | 338 kts | 182° |
| 2026-04-19 04:40 | 37.74164 | -76.64001 | 20276 ft | 328 kts | 182° |
| 2026-04-19 04:41 | 37.71900 | -76.63852 | 20734 ft | 326 kts | 182° |
| 2026-04-19 04:41 | 37.69613 | -76.63707 | 21163 ft | 337 kts | 182° |
| 2026-04-19 04:41 | 37.67210 | -76.63563 | 21294 ft | 355 kts | 182° |
| 2026-04-19 04:41 | 37.64680 | -76.63410 | 21423 ft | 372 kts | 182° |
| 2026-04-19 04:42 | 37.62037 | -76.63242 | 21632 ft | 386 kts | 182° |
| 2026-04-19 04:42 | 37.59335 | -76.63114 | 22119 ft | 390 kts | 186° |
| 2026-04-19 04:42 | 37.56635 | -76.63392 | 22658 ft | 391 kts | 191° |
| 2026-04-19 04:42 | 37.54839 | -76.63634 | 23031 ft | 393 kts | 191° |
| 2026-04-19 04:43 | 37.51186 | -76.64131 | 23721 ft | 397 kts | 191° |
| 2026-04-19 04:43 | 37.49363 | -76.64379 | 24025 ft | 399 kts | 191° |
| 2026-04-19 04:43 | 37.46559 | -76.64762 | 24496 ft | 401 kts | 191° |
| 2026-04-19 04:43 | 37.43775 | -76.65143 | 24952 ft | 404 kts | 191° |
| 2026-04-19 04:44 | 37.40969 | -76.65527 | 25359 ft | 407 kts | 191° |
| 2026-04-19 04:44 | 37.38138 | -76.65916 | 25772 ft | 411 kts | 191° |
| 2026-04-19 04:44 | 37.35286 | -76.66305 | 26196 ft | 414 kts | 191° |
| 2026-04-19 04:44 | 37.32422 | -76.66693 | 26627 ft | 416 kts | 191° |
| 2026-04-19 04:45 | 37.29534 | -76.67085 | 27058 ft | 419 kts | 191° |
| 2026-04-19 04:45 | 37.26627 | -76.67479 | 27488 ft | 421 kts | 191° |
| 2026-04-19 04:45 | 37.23706 | -76.67876 | 27910 ft | 424 kts | 192° |
| 2026-04-19 04:45 | 37.20770 | -76.68277 | 28330 ft | 426 kts | 192° |
| 2026-04-19 04:46 | 37.17809 | -76.68681 | 28715 ft | 429 kts | 192° |
| 2026-04-19 04:46 | 37.14831 | -76.69085 | 29102 ft | 432 kts | 192° |
| 2026-04-19 04:46 | 37.11831 | -76.69493 | 29484 ft | 435 kts | 192° |
| 2026-04-19 04:46 | 37.08812 | -76.69904 | 29863 ft | 437 kts | 192° |
| 2026-04-19 04:47 | 37.05776 | -76.70315 | 30192 ft | 440 kts | 192° |
| 2026-04-19 04:47 | 37.02687 | -76.70736 | 30503 ft | 442 kts | 192° |
| 2026-04-19 04:47 | 36.99624 | -76.71152 | 30807 ft | 444 kts | 192° |
| 2026-04-19 04:47 | 36.96539 | -76.71569 | 31088 ft | 447 kts | 192° |
| 2026-04-19 04:48 | 36.93440 | -76.71986 | 31375 ft | 449 kts | 192° |
| 2026-04-19 04:48 | 36.90329 | -76.72405 | 31727 ft | 450 kts | 192° |
| 2026-04-19 04:48 | 36.87219 | -76.72821 | 32151 ft | 449 kts | 192° |
| 2026-04-19 04:48 | 36.84115 | -76.73237 | 32565 ft | 448 kts | 192° |
| 2026-04-19 04:49 | 36.81015 | -76.73654 | 32972 ft | 448 kts | 192° |
| 2026-04-19 04:49 | 36.77920 | -76.74070 | 33378 ft | 447 kts | 192° |
| 2026-04-19 04:49 | 36.74826 | -76.74486 | 33785 ft | 447 kts | 192° |
| 2026-04-19 04:49 | 36.71741 | -76.74899 | 34133 ft | 446 kts | 192° |
| 2026-04-19 04:50 | 36.68649 | -76.75313 | 34441 ft | 447 kts | 193° |
| 2026-04-19 04:50 | 36.65552 | -76.75726 | 34755 ft | 448 kts | 193° |
| 2026-04-19 04:50 | 36.62451 | -76.76139 | 35080 ft | 448 kts | 193° |
| 2026-04-19 04:50 | 36.59350 | -76.76556 | 35395 ft | 449 kts | 193° |
| 2026-04-19 04:51 | 36.56242 | -76.76974 | 35695 ft | 449 kts | 193° |
| 2026-04-19 04:51 | 36.53136 | -76.77391 | 35992 ft | 449 kts | 194° |
| 2026-04-19 04:51 | 36.50027 | -76.77806 | 36282 ft | 450 kts | 194° |
| 2026-04-19 04:51 | 36.46908 | -76.78221 | 36503 ft | 452 kts | 194° |
| 2026-04-19 04:52 | 36.43777 | -76.78640 | 36725 ft | 453 kts | 194° |
| 2026-04-19 04:52 | 36.40638 | -76.79061 | 36978 ft | 454 kts | 194° |
| 2026-04-19 04:52 | 36.37496 | -76.79481 | 37243 ft | 454 kts | 194° |
| 2026-04-19 04:52 | 36.34349 | -76.79898 | 37512 ft | 455 kts | 195° |
| 2026-04-19 04:53 | 36.31203 | -76.80312 | 37780 ft | 455 kts | 195° |
| 2026-04-19 04:53 | 36.28050 | -76.80729 | 37936 ft | 456 kts | 195° |
| 2026-04-19 04:53 | 36.21729 | -76.81563 | 37965 ft | 457 kts | 195° |
| 2026-04-19 04:54 | 36.15399 | -76.82397 | 37966 ft | 458 kts | 195° |
| 2026-04-19 04:54 | 36.09062 | -76.83231 | 37971 ft | 458 kts | 195° |
| 2026-04-19 04:55 | 36.02725 | -76.84067 | 37972 ft | 458 kts | 195° |
| 2026-04-19 04:55 | 35.96344 | -76.84913 | 37947 ft | 459 kts | 195° |
| 2026-04-19 04:56 | 35.90177 | -76.86419 | 37950 ft | 443 kts | 209° |
| 2026-04-19 04:56 | 35.84693 | -76.89559 | 37978 ft | 432 kts | 217° |
| 2026-04-19 04:57 | 35.79316 | -76.92883 | 37993 ft | 432 kts | 217° |
| 2026-04-19 04:57 | 35.73936 | -76.96185 | 37982 ft | 432 kts | 217° |
| 2026-04-19 04:58 | 35.68550 | -76.99490 | 37986 ft | 433 kts | 217° |
| 2026-04-19 04:58 | 35.63124 | -77.02815 | 37989 ft | 433 kts | 217° |
| 2026-04-19 04:59 | 35.57735 | -77.06119 | 37996 ft | 433 kts | 217° |
| 2026-04-19 04:59 | 35.52344 | -77.09416 | 37990 ft | 433 kts | 216° |
| 2026-04-19 05:00 | 35.46952 | -77.12703 | 37999 ft | 432 kts | 216° |
| 2026-04-19 05:00 | 35.41539 | -77.15997 | 38002 ft | 431 kts | 216° |
| 2026-04-19 05:01 | 35.36163 | -77.19272 | 38003 ft | 431 kts | 216° |
| 2026-04-19 05:01 | 35.30794 | -77.22543 | 38000 ft | 431 kts | 216° |
| 2026-04-19 05:02 | 35.25430 | -77.25802 | 38010 ft | 430 kts | 217° |
| 2026-04-19 05:02 | 35.20078 | -77.29044 | 38010 ft | 429 kts | 217° |
| 2026-04-19 05:03 | 35.14736 | -77.32276 | 38018 ft | 428 kts | 217° |
| 2026-04-19 05:03 | 35.09400 | -77.35501 | 38014 ft | 428 kts | 217° |
| 2026-04-19 05:04 | 35.04027 | -77.38745 | 37995 ft | 428 kts | 217° |
| 2026-04-19 05:04 | 34.98688 | -77.41964 | 38004 ft | 429 kts | 217° |
| 2026-04-19 05:05 | 34.93375 | -77.45171 | 38011 ft | 429 kts | 217° |
| 2026-04-19 05:05 | 34.87986 | -77.48407 | 38013 ft | 429 kts | 217° |
| 2026-04-19 05:06 | 34.82619 | -77.51623 | 37990 ft | 430 kts | 217° |
| 2026-04-19 05:06 | 34.77280 | -77.54819 | 37991 ft | 431 kts | 217° |
| 2026-04-19 05:07 | 34.71889 | -77.58040 | 37996 ft | 432 kts | 216° |
| 2026-04-19 05:07 | 34.66490 | -77.61254 | 38011 ft | 432 kts | 216° |
| 2026-04-19 05:08 | 34.58408 | -77.66069 | 38000 ft | 431 kts | 216° |
| 2026-04-19 05:08 | 34.55601 | -77.67463 | 38002 ft | 442 kts | 207° |
| 2026-04-19 05:09 | 34.52576 | -77.68370 | 38005 ft | 451 kts | 202° |
| 2026-04-19 05:09 | 34.46433 | -77.69923 | 38011 ft | 451 kts | 202° |
| 2026-04-19 05:10 | 34.40235 | -77.71490 | 38009 ft | 452 kts | 202° |
| 2026-04-19 05:10 | 34.34128 | -77.73043 | 37989 ft | 452 kts | 202° |
| 2026-04-19 05:11 | 34.27969 | -77.74613 | 37998 ft | 453 kts | 202° |
| 2026-04-19 05:11 | 34.21803 | -77.76180 | 38002 ft | 453 kts | 202° |
| 2026-04-19 05:12 | 34.15620 | -77.77742 | 38008 ft | 454 kts | 202° |
| 2026-04-19 05:12 | 34.09435 | -77.79300 | 37997 ft | 454 kts | 201° |
| 2026-04-19 05:13 | 34.03240 | -77.80855 | 38001 ft | 455 kts | 201° |
| 2026-04-19 05:13 | 33.97040 | -77.82422 | 38011 ft | 455 kts | 202° |
| 2026-04-19 05:14 | 33.90834 | -77.83989 | 38021 ft | 456 kts | 201° |
| 2026-04-19 05:14 | 33.84629 | -77.85553 | 37998 ft | 456 kts | 201° |
| 2026-04-19 05:15 | 33.78412 | -77.87129 | 38005 ft | 456 kts | 203° |
| 2026-04-19 05:15 | 33.73337 | -77.88707 | 38014 ft | 452 kts | 206° |
| 2026-04-19 05:16 | 33.67329 | -77.90865 | 38023 ft | 451 kts | 207° |
| 2026-04-19 05:16 | 33.61312 | -77.93017 | 38020 ft | 452 kts | 206° |
| 2026-04-19 05:17 | 33.55244 | -77.95081 | 38016 ft | 454 kts | 205° |
| 2026-04-19 05:17 | 33.49161 | -77.97119 | 38019 ft | 454 kts | 206° |
| 2026-04-19 05:18 | 33.43084 | -77.99156 | 38030 ft | 454 kts | 206° |
| 2026-04-19 05:18 | 33.37005 | -78.01201 | 38027 ft | 453 kts | 206° |
| 2026-04-19 05:19 | 33.30932 | -78.03254 | 38034 ft | 454 kts | 206° |
| 2026-04-19 05:19 | 33.24855 | -78.05305 | 38039 ft | 454 kts | 206° |
| 2026-04-19 05:20 | 33.18774 | -78.07350 | 38048 ft | 454 kts | 206° |
| 2026-04-19 05:20 | 33.12694 | -78.09388 | 38050 ft | 454 kts | 206° |
| 2026-04-19 05:21 | 33.06612 | -78.11419 | 38028 ft | 454 kts | 206° |
| 2026-04-19 05:21 | 33.00518 | -78.13454 | 38032 ft | 455 kts | 206° |
| 2026-04-19 05:22 | 32.94416 | -78.15494 | 38038 ft | 455 kts | 206° |
| 2026-04-19 05:22 | 32.88315 | -78.17533 | 38043 ft | 456 kts | 206° |
| 2026-04-19 05:23 | 32.82212 | -78.19564 | 38045 ft | 456 kts | 205° |
| 2026-04-19 05:23 | 32.76097 | -78.21591 | 38054 ft | 456 kts | 205° |
| 2026-04-19 05:24 | 32.69987 | -78.23615 | 38059 ft | 456 kts | 206° |
| 2026-04-19 05:24 | 32.63875 | -78.25641 | 38056 ft | 456 kts | 206° |
| 2026-04-19 05:25 | 32.57811 | -78.27654 | 38041 ft | 456 kts | 205° |
| 2026-04-19 05:25 | 32.51695 | -78.29687 | 38045 ft | 456 kts | 205° |
| 2026-04-19 05:26 | 32.45607 | -78.31693 | 38056 ft | 457 kts | 205° |
| 2026-04-19 05:26 | 32.39483 | -78.33711 | 38058 ft | 457 kts | 205° |
| 2026-04-19 05:27 | 32.33355 | -78.35728 | 38043 ft | 457 kts | 205° |
| 2026-04-19 05:27 | 32.27223 | -78.37742 | 38047 ft | 458 kts | 205° |
| 2026-04-19 05:28 | 32.21083 | -78.39752 | 38051 ft | 458 kts | 205° |
| 2026-04-19 05:28 | 32.14935 | -78.41766 | 38056 ft | 458 kts | 205° |
| 2026-04-19 05:29 | 32.08825 | -78.43760 | 38047 ft | 459 kts | 205° |
| 2026-04-19 05:29 | 32.02678 | -78.45769 | 38038 ft | 459 kts | 205° |
| 2026-04-19 05:30 | 31.96517 | -78.47791 | 38048 ft | 460 kts | 205° |
| 2026-04-19 05:30 | 31.90349 | -78.49798 | 38055 ft | 460 kts | 205° |
| 2026-04-19 05:31 | 31.84167 | -78.51804 | 38066 ft | 461 kts | 205° |
| 2026-04-19 05:31 | 31.77994 | -78.53814 | 38052 ft | 461 kts | 205° |
| 2026-04-19 05:32 | 31.71806 | -78.55825 | 38058 ft | 462 kts | 205° |
| 2026-04-19 05:32 | 31.65611 | -78.57828 | 38064 ft | 462 kts | 205° |
| 2026-04-19 05:33 | 31.59418 | -78.59835 | 38071 ft | 462 kts | 205° |
| 2026-04-19 05:33 | 31.53213 | -78.61850 | 38053 ft | 462 kts | 205° |
| 2026-04-19 05:34 | 31.47035 | -78.63933 | 38055 ft | 462 kts | 206° |
| 2026-04-19 05:34 | 31.40869 | -78.66071 | 38062 ft | 463 kts | 206° |
| 2026-04-19 05:35 | 31.34687 | -78.68215 | 38069 ft | 463 kts | 206° |
| 2026-04-19 05:35 | 31.28505 | -78.70335 | 38068 ft | 463 kts | 206° |
| 2026-04-19 05:36 | 31.22320 | -78.72438 | 38077 ft | 463 kts | 206° |
| 2026-04-19 05:36 | 31.16138 | -78.74539 | 38088 ft | 463 kts | 206° |
| 2026-04-19 05:37 | 31.09955 | -78.76649 | 38084 ft | 463 kts | 206° |
| 2026-04-19 05:37 | 31.03779 | -78.78749 | 38083 ft | 463 kts | 206° |
| 2026-04-19 05:38 | 30.97594 | -78.80842 | 38077 ft | 463 kts | 206° |
| 2026-04-19 05:38 | 30.91406 | -78.82929 | 38084 ft | 463 kts | 206° |
| 2026-04-19 05:39 | 30.85215 | -78.85021 | 38085 ft | 463 kts | 206° |
| 2026-04-19 05:39 | 30.79025 | -78.87113 | 38088 ft | 463 kts | 206° |
| 2026-04-19 05:40 | 30.72833 | -78.89206 | 38068 ft | 463 kts | 205° |
| 2026-04-19 05:40 | 30.66639 | -78.91297 | 38075 ft | 464 kts | 205° |
| 2026-04-19 05:41 | 30.60440 | -78.93386 | 38081 ft | 464 kts | 205° |
| 2026-04-19 05:41 | 30.54277 | -78.95454 | 38085 ft | 464 kts | 205° |
| 2026-04-19 05:42 | 30.48072 | -78.97534 | 38082 ft | 464 kts | 205° |
| 2026-04-19 05:42 | 30.41861 | -78.99610 | 38084 ft | 465 kts | 205° |
| 2026-04-19 05:43 | 30.35547 | -79.01416 | 38085 ft | 469 kts | 201° |
| 2026-04-19 05:43 | 30.29143 | -79.02984 | 38088 ft | 470 kts | 201° |
| 2026-04-19 05:44 | 30.22748 | -79.04572 | 38095 ft | 470 kts | 201° |
| 2026-04-19 05:44 | 30.16377 | -79.06232 | 38095 ft | 469 kts | 202° |
| 2026-04-19 05:45 | 30.10027 | -79.07912 | 38109 ft | 468 kts | 202° |
| 2026-04-19 05:45 | 30.03682 | -79.09575 | 38110 ft | 467 kts | 201° |
| 2026-04-19 05:46 | 29.97351 | -79.11223 | 38108 ft | 466 kts | 201° |
| 2026-04-19 05:46 | 29.91022 | -79.12872 | 38087 ft | 466 kts | 201° |
| 2026-04-19 05:47 | 29.84697 | -79.14514 | 38093 ft | 466 kts | 201° |
| 2026-04-19 05:47 | 29.78360 | -79.16151 | 38088 ft | 467 kts | 201° |
| 2026-04-19 05:48 | 29.72021 | -79.17769 | 38092 ft | 467 kts | 201° |
| 2026-04-19 05:48 | 29.65676 | -79.19381 | 38075 ft | 467 kts | 201° |
| 2026-04-19 05:49 | 29.59321 | -79.20987 | 38079 ft | 468 kts | 201° |
| 2026-04-19 05:49 | 29.52963 | -79.22605 | 38085 ft | 468 kts | 201° |
| 2026-04-19 05:50 | 29.46596 | -79.24223 | 38093 ft | 469 kts | 201° |
| 2026-04-19 05:50 | 29.40219 | -79.25832 | 38097 ft | 469 kts | 201° |
| 2026-04-19 05:51 | 29.33888 | -79.27438 | 38092 ft | 469 kts | 201° |
| 2026-04-19 05:51 | 29.27504 | -79.29055 | 38096 ft | 470 kts | 200° |
| 2026-04-19 05:52 | 29.21115 | -79.30667 | 38092 ft | 470 kts | 201° |
| 2026-04-19 05:52 | 29.14731 | -79.32286 | 38095 ft | 470 kts | 201° |
| 2026-04-19 05:53 | 29.08293 | -79.33905 | 38080 ft | 471 kts | 200° |
| 2026-04-19 05:53 | 29.01886 | -79.35520 | 38085 ft | 471 kts | 200° |
| 2026-04-19 05:54 | 28.95479 | -79.37138 | 38088 ft | 472 kts | 200° |
| 2026-04-19 05:54 | 28.89107 | -79.38738 | 38092 ft | 472 kts | 200° |
| 2026-04-19 05:55 | 28.82637 | -79.40350 | 38085 ft | 472 kts | 200° |
| 2026-04-19 05:55 | 28.79467 | -79.41144 | 37869 ft | 473 kts | 200° |
| 2026-04-19 05:55 | 28.76251 | -79.41948 | 37605 ft | 473 kts | 200° |
| 2026-04-19 05:55 | 28.73033 | -79.42753 | 37339 ft | 473 kts | 200° |
| 2026-04-19 05:56 | 28.69820 | -79.43558 | 37078 ft | 472 kts | 200° |
| 2026-04-19 05:56 | 28.66619 | -79.44362 | 36823 ft | 471 kts | 200° |
| 2026-04-19 05:56 | 28.63416 | -79.45160 | 36574 ft | 471 kts | 200° |
| 2026-04-19 05:56 | 28.60211 | -79.45956 | 36336 ft | 471 kts | 200° |
| 2026-04-19 05:57 | 28.57007 | -79.46754 | 35948 ft | 472 kts | 200° |
| 2026-04-19 05:57 | 28.53763 | -79.47564 | 34934 ft | 481 kts | 200° |
| 2026-04-19 05:57 | 28.50489 | -79.48385 | 34067 ft | 485 kts | 200° |
| 2026-04-19 05:57 | 28.47171 | -79.49217 | 33009 ft | 490 kts | 199° |
| 2026-04-19 05:58 | 28.43839 | -79.50044 | 32330 ft | 487 kts | 198° |
| 2026-04-19 05:58 | 28.40549 | -79.50857 | 31727 ft | 482 kts | 198° |
| 2026-04-19 05:58 | 28.37289 | -79.51665 | 31089 ft | 478 kts | 198° |
| 2026-04-19 05:58 | 28.34056 | -79.52464 | 30462 ft | 474 kts | 197° |
| 2026-04-19 05:59 | 28.30849 | -79.53257 | 29792 ft | 470 kts | 197° |
| 2026-04-19 05:59 | 28.27686 | -79.54055 | 29237 ft | 461 kts | 197° |
| 2026-04-19 05:59 | 28.24588 | -79.54880 | 28664 ft | 454 kts | 198° |
| 2026-04-19 05:59 | 28.21537 | -79.55721 | 28127 ft | 448 kts | 198° |
| 2026-04-19 06:00 | 28.18528 | -79.56564 | 27589 ft | 442 kts | 198° |
| 2026-04-19 06:00 | 28.15560 | -79.57395 | 27063 ft | 437 kts | 198° |
| 2026-04-19 06:00 | 28.12629 | -79.58208 | 26550 ft | 431 kts | 197° |
| 2026-04-19 06:00 | 28.09726 | -79.59003 | 26042 ft | 427 kts | 197° |
| 2026-04-19 06:01 | 28.06855 | -79.59784 | 25558 ft | 422 kts | 197° |
| 2026-04-19 06:01 | 28.04975 | -79.60293 | 25241 ft | 419 kts | 197° |
| 2026-04-19 06:01 | 28.02151 | -79.61053 | 24768 ft | 415 kts | 197° |
| 2026-04-19 06:01 | 27.99359 | -79.61803 | 24306 ft | 411 kts | 197° |
| 2026-04-19 06:02 | 27.96576 | -79.62553 | 23799 ft | 409 kts | 197° |
| 2026-04-19 06:02 | 27.93802 | -79.63304 | 23175 ft | 410 kts | 196° |
| 2026-04-19 06:02 | 27.91037 | -79.64054 | 22631 ft | 408 kts | 196° |
| 2026-04-19 06:02 | 27.88282 | -79.64801 | 22080 ft | 407 kts | 196° |
| 2026-04-19 06:03 | 27.85529 | -79.65551 | 21529 ft | 406 kts | 196° |
| 2026-04-19 06:03 | 27.82786 | -79.66300 | 20984 ft | 405 kts | 196° |
| 2026-04-19 06:03 | 27.80049 | -79.67046 | 20434 ft | 405 kts | 196° |
| 2026-04-19 06:03 | 27.77313 | -79.67787 | 19893 ft | 404 kts | 195° |
| 2026-04-19 06:04 | 27.74596 | -79.68519 | 19439 ft | 400 kts | 195° |
| 2026-04-19 06:04 | 27.71885 | -79.69248 | 18971 ft | 398 kts | 195° |
| 2026-04-19 06:04 | 27.69212 | -79.69967 | 18513 ft | 393 kts | 195° |
| 2026-04-19 06:04 | 27.66567 | -79.70680 | 17793 ft | 390 kts | 195° |
| 2026-04-19 06:05 | 27.63940 | -79.71388 | 17105 ft | 386 kts | 195° |
| 2026-04-19 06:05 | 27.61352 | -79.72085 | 16570 ft | 379 kts | 195° |
| 2026-04-19 06:05 | 27.58812 | -79.72769 | 16066 ft | 371 kts | 195° |
| 2026-04-19 06:05 | 27.56321 | -79.73441 | 15568 ft | 364 kts | 195° |
| 2026-04-19 06:06 | 27.53876 | -79.74101 | 15080 ft | 360 kts | 195° |
| 2026-04-19 06:06 | 27.51443 | -79.74755 | 14593 ft | 359 kts | 195° |
| 2026-04-19 06:06 | 27.49012 | -79.75408 | 14107 ft | 359 kts | 195° |
| 2026-04-19 06:06 | 27.46586 | -79.76062 | 13595 ft | 358 kts | 195° |
| 2026-04-19 06:07 | 27.44171 | -79.76708 | 13096 ft | 356 kts | 195° |
| 2026-04-19 06:07 | 27.41770 | -79.77348 | 12621 ft | 353 kts | 195° |
| 2026-04-19 06:07 | 27.39391 | -79.77983 | 12146 ft | 350 kts | 195° |
| 2026-04-19 06:07 | 27.37039 | -79.78613 | 11676 ft | 346 kts | 195° |
| 2026-04-19 06:08 | 27.34709 | -79.79237 | 11298 ft | 340 kts | 195° |
| 2026-04-19 06:08 | 27.32465 | -79.79837 | 11183 ft | 323 kts | 195° |
| 2026-04-19 06:08 | 27.30331 | -79.80408 | 11060 ft | 308 kts | 195° |
| 2026-04-19 06:08 | 27.28281 | -79.80956 | 10879 ft | 297 kts | 195° |
| 2026-04-19 06:09 | 27.26288 | -79.81490 | 10544 ft | 293 kts | 195° |
| 2026-04-19 06:09 | 27.24319 | -79.82021 | 10175 ft | 290 kts | 195° |
| 2026-04-19 06:09 | 27.22367 | -79.82547 | 9779 ft | 287 kts | 195° |
| 2026-04-19 06:09 | 27.20480 | -79.83226 | 9287 ft | 285 kts | 206° |
| 2026-04-19 06:10 | 27.18731 | -79.84256 | 8897 ft | 283 kts | 210° |
| 2026-04-19 06:10 | 27.16989 | -79.85299 | 8527 ft | 283 kts | 210° |
| 2026-04-19 06:10 | 27.15274 | -79.86323 | 8172 ft | 283 kts | 210° |
| 2026-04-19 06:10 | 27.13513 | -79.87373 | 7808 ft | 283 kts | 210° |
| 2026-04-19 06:11 | 27.11799 | -79.88392 | 7459 ft | 283 kts | 210° |
| 2026-04-19 06:11 | 27.10060 | -79.89423 | 7091 ft | 282 kts | 210° |
| 2026-04-19 06:11 | 27.08327 | -79.90451 | 6736 ft | 282 kts | 210° |
| 2026-04-19 06:12 | 27.04868 | -79.92505 | 5996 ft | 281 kts | 210° |
| 2026-04-19 06:12 | 27.03143 | -79.93528 | 5638 ft | 280 kts | 210° |
| 2026-04-19 06:12 | 27.01430 | -79.94545 | 5283 ft | 278 kts | 210° |
| 2026-04-19 06:12 | 26.99726 | -79.95557 | 4929 ft | 277 kts | 210° |
| 2026-04-19 06:13 | 26.98021 | -79.96570 | 4569 ft | 276 kts | 210° |
| 2026-04-19 06:13 | 26.96331 | -79.97575 | 4215 ft | 274 kts | 209° |
| 2026-04-19 06:13 | 26.94713 | -79.98674 | 3992 ft | 271 kts | 219° |
| 2026-04-19 06:13 | 26.93220 | -79.99972 | 3989 ft | 272 kts | 219° |
| 2026-04-19 06:14 | 26.91766 | -80.01225 | 3982 ft | 254 kts | 219° |
| 2026-04-19 06:14 | 26.90417 | -80.02381 | 3983 ft | 236 kts | 219° |
| 2026-04-19 06:14 | 26.89136 | -80.03481 | 3984 ft | 231 kts | 219° |
| 2026-04-19 06:14 | 26.87860 | -80.04576 | 3987 ft | 231 kts | 220° |
| 2026-04-19 06:15 | 26.86584 | -80.05670 | 3984 ft | 231 kts | 220° |
| 2026-04-19 06:15 | 26.85313 | -80.06760 | 3983 ft | 230 kts | 218° |
| 2026-04-19 06:15 | 26.84045 | -80.07849 | 3987 ft | 230 kts | 219° |
| 2026-04-19 06:15 | 26.82779 | -80.08945 | 3985 ft | 231 kts | 220° |
| 2026-04-19 06:16 | 26.81567 | -80.10119 | 3986 ft | 229 kts | 231° |
| 2026-04-19 06:16 | 26.80759 | -80.11635 | 3984 ft | 226 kts | 252° |
| 2026-04-19 06:16 | 26.80462 | -80.13348 | 3987 ft | 225 kts | 268° |
| 2026-04-19 06:16 | 26.80354 | -80.15094 | 3985 ft | 225 kts | 267° |
| 2026-04-19 06:17 | 26.80231 | -80.16837 | 3984 ft | 225 kts | 267° |
| 2026-04-19 06:17 | 26.80121 | -80.18583 | 3983 ft | 225 kts | 267° |
| 2026-04-19 06:17 | 26.80027 | -80.20334 | 3982 ft | 225 kts | 267° |
| 2026-04-19 06:17 | 26.79935 | -80.22087 | 3983 ft | 225 kts | 268° |
| 2026-04-19 06:18 | 26.79842 | -80.23837 | 3983 ft | 225 kts | 267° |
| 2026-04-19 06:18 | 26.79749 | -80.25591 | 3986 ft | 226 kts | 267° |
| 2026-04-19 06:18 | 26.79660 | -80.27342 | 3985 ft | 226 kts | 268° |
| 2026-04-19 06:18 | 26.79570 | -80.29095 | 3985 ft | 225 kts | 268° |
| 2026-04-19 06:19 | 26.79481 | -80.30846 | 3986 ft | 226 kts | 267° |
| 2026-04-19 06:19 | 26.79396 | -80.32601 | 3987 ft | 226 kts | 268° |
| 2026-04-19 06:19 | 26.79310 | -80.34356 | 3987 ft | 226 kts | 268° |
| 2026-04-19 06:19 | 26.79224 | -80.36108 | 3985 ft | 226 kts | 268° |
| 2026-04-19 06:20 | 26.79136 | -80.37861 | 3984 ft | 226 kts | 268° |
| 2026-04-19 06:20 | 26.78969 | -80.39603 | 3902 ft | 225 kts | 254° |
| 2026-04-19 06:20 | 26.78211 | -80.41108 | 3574 ft | 225 kts | 225° |
| 2026-04-19 06:20 | 26.76897 | -80.42021 | 3259 ft | 223 kts | 195° |
| 2026-04-19 06:21 | 26.75377 | -80.42113 | 3025 ft | 218 kts | 166° |
| 2026-04-19 06:21 | 26.74008 | -80.41403 | 2980 ft | 219 kts | 140° |
| 2026-04-19 06:21 | 26.73003 | -80.40121 | 2983 ft | 221 kts | 127° |
| 2026-04-19 06:21 | 26.72074 | -80.38758 | 2981 ft | 221 kts | 127° |
| 2026-04-19 06:22 | 26.71142 | -80.37392 | 2991 ft | 221 kts | 127° |
| 2026-04-19 06:22 | 26.70211 | -80.36022 | 2993 ft | 221 kts | 126° |
| 2026-04-19 06:22 | 26.69504 | -80.34509 | 2993 ft | 220 kts | 108° |
| 2026-04-19 06:22 | 26.69258 | -80.32823 | 2994 ft | 221 kts | 92° |
| 2026-04-19 06:23 | 26.69195 | -80.31111 | 2994 ft | 221 kts | 92° |
| 2026-04-19 06:23 | 26.69124 | -80.29395 | 2995 ft | 221 kts | 93° |
| 2026-04-19 06:23 | 26.69050 | -80.27685 | 2872 ft | 216 kts | 93° |
| 2026-04-19 06:23 | 26.68977 | -80.26062 | 2686 ft | 210 kts | 93° |
| 2026-04-19 06:24 | 26.68903 | -80.24417 | 2421 ft | 209 kts | 94° |
| 2026-04-19 06:24 | 26.68834 | -80.22817 | 2156 ft | 208 kts | 94° |
| 2026-04-19 06:24 | 26.68765 | -80.21186 | 1884 ft | 207 kts | 94° |
| 2026-04-19 06:24 | 26.68697 | -80.19596 | 1624 ft | 200 kts | 95° |
| 2026-04-19 06:25 | 26.68634 | -80.18093 | 1367 ft | 188 kts | 95° |
| 2026-04-19 06:25 | 26.68574 | -80.16705 | 1128 ft | 174 kts | 95° |
| 2026-04-19 06:25 | 26.68517 | -80.15382 | 914 ft | 163 kts | 95° |
| 2026-04-19 06:25 | 26.68463 | -80.14155 | 687 ft | 154 kts | 95° |
| 2026-04-19 06:26 | 26.68395 | -80.12993 | 514 ft | 146 kts | 94° |
| 2026-04-19 06:26 | 26.68360 | -80.11884 | 291 ft | 143 kts | 92° |
| 2026-04-19 06:26 | 26.68328 | -80.10813 | 121 ft | 135 kts | 94° |
| 2026-04-19 06:26 | 26.68267 | -80.09775 | 29 ft | 123 kts | 92° |
| 2026-04-19 06:27 | 26.68238 | -80.08956 | 22 ft | 87 kts | 93° |
| 2026-04-19 06:27 | 26.68217 | -80.08448 | 22 ft | 40 kts | 93° |
| 2026-04-19 06:27 | 26.68208 | -80.08220 | 22 ft | 14 kts | 92° |
| 2026-04-19 06:27 | 26.68244 | -80.08155 | 22 ft | 9 kts | 9° |
| 2026-04-19 06:28 | 26.68307 | -80.08165 | 22 ft | 9 kts | 324° |
| 2026-04-19 06:28 | 26.68318 | -80.08228 | 22 ft | 9 kts | 269° |
| 2026-04-19 06:28 | 26.68321 | -80.08301 | 22 ft | 10 kts | 274° |
| 2026-04-19 06:28 | 26.68325 | -80.08379 | 22 ft | 10 kts | 274° |
| 2026-04-19 06:29 | 26.68329 | -80.08463 | 22 ft | 11 kts | 271° |
| 2026-04-19 06:29 | 26.68332 | -80.08552 | 22 ft | 12 kts | 271° |
| 2026-04-19 06:29 | 26.68337 | -80.08647 | 23 ft | 12 kts | 275° |
| 2026-04-19 06:29 | 26.68351 | -80.08711 | 23 ft | 7 kts | 316° |
| 2026-04-19 06:30 | 26.68403 | -80.08719 | 22 ft | 8 kts | 358° |
| 2026-04-19 06:30 | 26.68437 | -80.08761 | 22 ft | 8 kts | 286° |
| 2026-04-19 06:30 | 26.68439 | -80.08827 | 22 ft | 9 kts | 270° |
| 2026-04-19 06:30 | 26.68442 | -80.08899 | 22 ft | 10 kts | 274° |
| 2026-04-19 06:31 | 26.68446 | -80.08977 | 22 ft | 10 kts | 271° |
| 2026-04-19 06:31 | 26.68449 | -80.09060 | 22 ft | 10 kts | 272° |
| 2026-04-19 06:31 | 26.68491 | -80.09095 | 23 ft | 8 kts | 355° |
| 2026-04-19 06:31 | 26.68549 | -80.09102 | 23 ft | 9 kts | 326° |
| 2026-04-19 06:32 | 26.68569 | -80.09167 | 23 ft | 9 kts | 272° |
| 2026-04-19 06:32 | 26.68570 | -80.09243 | 22 ft | 10 kts | 260° |
| 2026-04-19 06:32 | 26.68527 | -80.09303 | 22 ft | 9 kts | 227° |
| 2026-04-19 06:32 | 26.68541 | -80.09360 | 22 ft | 9 kts | 309° |
| 2026-04-19 06:33 | 26.68581 | -80.09414 | 22 ft | 9 kts | 310° |
| 2026-04-19 06:33 | 26.68631 | -80.09464 | 22 ft | 10 kts | 318° |
| 2026-04-19 06:33 | 26.68685 | -80.09504 | 22 ft | 8 kts | 2° |
| 2026-04-19 06:33 | 26.68731 | -80.09463 | 22 ft | 9 kts | 47° |
| 2026-04-19 06:34 | 26.68775 | -80.09409 | 24 ft | 9 kts | 47° |
| 2026-04-19 06:34 | 26.68812 | -80.09357 | 22 ft | 9 kts | 60° |
| 2026-04-19 06:34 | 26.68845 | -80.09302 | 22 ft | 8 kts | 50° |
| 2026-04-19 06:34 | 26.68845 | -80.09280 | 22 ft | 4 kts | 105° |
| 2026-04-19 06:35 | 26.68829 | -80.09254 | 23 ft | 5 kts | 133° |
| 2026-04-19 06:35 | 26.68816 | -80.09241 | 22 ft | 0 kts | 138° |
| 2026-04-19 06:35 | 26.68812 | -80.09237 | 22 ft | 1 kts | 138° |
| 2026-04-19 06:35 | 26.68809 | -80.09233 | 22 ft | 0 kts | 138° |